Timeline UpdatesTrip UpdatesNews PostsPvt Posts♥♥Travel TipsAdmin PostsConv PostsFollowed PostsChat RequestsBlog PostsPNR Posts

Disclaimer
Search
 
 
Tue Oct 21, 2014 09:15:15 ISTHomeTrainsΣChainsAtlasPNRForumGalleryNewsFAQTripsMembersLoginFeedback
No Recent News for this Train
Other Trains in the News **new
Latest...
new timetable with effect from july 24 thursday for 15905 vivek( cape- dbrg )exp train leaves from cape at 23:00 instead of sat 14:45 and will reach monday dbrg at 07:15 instead of wed 03:30am
Tue Jun 24, 2014 (04:29PM)
⇐ Return Journey: Train# 15906

15905/Kanyakumari - Dibrugarh Vivek Express

Time-Table HAS CHANGED.
Sep 03 2014 (11:07AM)
Change Departure Station:
Change Arrival Station:
Post a Train Travel TipPost a Train Travel Tip **new
Post a Comment/Question/Picture/VideoPost a Comment/Question/Picture/Video
Inaugural Run
Sat Nov 26, 2011
Pantry/Catering
✓ Pantry Car Avbl
✓ Catering Avbl
Loco/Rake Reversals
DGR/Durgapur (5); VSKP/Visakhapatnam Junction (8);
RSA - Rake Sharing
.
Rake/Coach Composition
LOCO-SLR-GS-GS-GS-B2-B1-A1-PC-S9-S8-S7-S6-S5-S4-S3-S2-S1-GS-GS-GS-SLR
Loco
Official Loco Links:- CAPE - VSKP :- WAM-4/WAP-4 VSKP - DGR :-...
Read more...
WAM-4/WAP-4 DGR - DBRG :- WDM-3A
News    PNR    Forum    Time-Table    Availability    Fare Chart    Map    Arr/Dep History    Trips    Gallery    ΣChains    X/O    Timeline    
Travel Time: 80h 15m    54 halts    Distance: 4236 km    Avg Speed: 52 km/hr
Type: Mail/Express
Zone: NFR/Northeast Frontier
Departs @ 23:00 (Avg 1m late)
Platform# ???
    T  
Kanniyakumari/CAPE 
Arrives @ 07:15 +4 nights (Avg 2h 48m late)
Platform# ???
 M     
Dibrugarh/DBRG 

54 halts. 681 intermediate Stations between Kanniyakumari and Dibrugarh

Show ALL intermediate Stations  Show Old Time-Table

#TrkCodeStation NameX/OArrivesAvgDepartsAvgHaltPFDay#KmSpeedElevZoneAddress
1/--/CAPEKanniyakumari (3)»  -23:00+1--10.04738mSRKanyakumari, Tamil Nadu
2/--/NCJNagercoil Junction (4)  23:20+023:25+45m--115.55322mSRNagercoil-629002, Tamil Nadu
3/--/TVCTrivandrum Central (5)  00:45+200:50+25m--286.67812mSRThiruvananthapuram 695001, Kerala
4/==/QLNKollam Junction (6)  01:45 01:40+701:50 01:45+65m22151.26016mSRKollam 0474-2746194, Kerala
5/==%CNGRChengannur (3)  02:48 02:46+302:50 02:47+52 1m32212.2466mSRPh: 0479-2452340, Kerala
6%==%KTYMKottayam (3)X  03:30 03:32+1703:35+225 3m--2247.03315mSRTel: 0481 2563535, Kerala
7/==/ERNErnakulam Town (North) (2)X  05:20 05:25+1105:25 05:30+135m--2307.0509mSRTel: 0484 2395198, Kerala
8/==/AWYAluva (3)  05:38 05:50+1805:40 05:51+182 1m32323.87112mSRPh: 0484-2624141, Kerala
9/==/TCRThrissur (4)  06:35 06:37+1806:38 06:40+173m--2378.4486mSRThrissur Tel: 0487 2423150, Kerala
10/==/PGTPalakkad Junction (4)  08:15-208:20+05m32454.24484mSRPalghat Tel: 0491 2555231, Kerala
11/==/CBECoimbatore Main Junction (6)X  09:35+209:40+65m--2509.563416mSRCoimbatore 641001, Tamil Nadu
12/==/TUPTiruppur (2)X  10:28+810:30+82m22560.075305mSRTiruppur. Ph:0421-2200450, Tamil Nadu
13/==/EDErode Junction (4)X  11:10+1011:15+105m12610.274175mSRErode ph.no: 0424-2256111, Tamil Nadu
14/==/SASalem Junction (6)  12:05+1412:10+185m--2671.674283mSRSalem, Tamil Nadu
15/==/JTJJolarpettai Junction (5)XO  13:48+5213:50+562m--2791.869405mSRJolarpettai, Tamil Nadu
16/==/KPDKatpadi Junction (5)  14:58 15:03+5615:00 15:05+572m22875.755213mSRVellore 632007, Tamil Nadu
17/==/RURenigunta Junction (5)  17:20+1:0117:35+5815m--21000.162113mSCRChittoor District, Andhra Pradesh
18/==/NLRNellore (4)  19:23 19:33+1:3919:25 19:34+1:402 1m221121.96321mSCRNellore, Andhra Pradesh
19/==/BZAVijayawada Junction (10)X  23:35+1:1523:45+1:2110m--21377.08324mSCRVijayawada 520001, Andhra Pradesh
20/==/EEEluru (3)X  00:28+1:4200:30+1:422m231436.36319mSCREluru Ph.no. 08812 226401., Andhra Pradesh
21/==/RJYRajahmundry (3)X  01:53 01:55+1:3901:55 01:57+1:392m331526.28423mSCRRajahmundry ph.no. 0883-2420541, Andhra Pradesh
22/==/SLOSamalkot Junction (3)  02:33+1:5902:35+1:592m131576.44218mSCRSamalkot, Andhra Pradesh
23/==/DVDDuvvada (4)  05:46+1:1605:48+1:172m--31709.73646mECoRVishakhapatnam District, Andhra Pradesh
24/==/VSKPVisakhapatnam Junction (8)06:15+1:2206:35+1:2520m--31726.15411mECoRVishakhapatnam 530001, Andhra Pradesh
25/==/VZMVizianagaram Junction (5)X  07:43+1:2407:45+1:242m--31787.28263mECoRVizianagaram, Andhra Pradesh
26/==/CHESrikakulam Road (4)  08:36+1:2308:38+1:232m--31856.85534mECoRsrikakulam road ph .no. 08942-287222, Andhra Pradesh
27/==/PSAPalasa (3)  09:58+1:0810:00+1:112m--31929.76431mECoRKasibugga, Andhra Pradesh
28/==/BAMBrahmapur (3)  11:10+1:0711:15+1:085m--32004.16827mECoRBerhampur, Odisha
29/==/KURKhurda Road Junction (7)X  13:25+1:0713:40+1:0915m--32151.25725mECoRKhordha, Odisha
30/==/BBSBhubaneswar (4)X  14:05 14:00+1:1314:10 14:05+1:145m--32170.14240mECoRBhubaneshwar, Odisha
31%==/CTCCuttack Junction (5)  14:55 14:45+1:2115:00 14:50+1:225m--32198.06128mECoRCuttack, Odisha
32/==/BHCBhadrak (4)X  16:45 16:43+1:2716:47 16:45+1:442m--32313.68323mECoRBhadrak, Odisha
33/==/BLSBalasore (4)X  17:30+1:3917:32+1:392m--32376.16519mSERBalasore, Odisha
34/==/HIJHijli (2)  19:15+1:1819:20+1:165m--32488.31448mSERdist - paschim medinipur, West Bengal
35/==/MDNMidnapore (3)  20:18+1:2120:20+1:242m--32502.09053mSERMedinipur, West Bengal
36/==/BQABankura Junction (3)  21:28+1:3321:30+1:342m--32604.67189mSERDist - Bankura, West Bengal
37/==/ADRAAdra Junction (4)  22:15+1:3822:25+1:3310m--32657.538190mSERDist - Puruliya, West Bengal
38/--/ASNAsansol Junction (7)X  23:30+1:3723:40+1:4210m--32699.039113mERDist - Bardhaman, West Bengal
39/==/DGRDurgapur (5)XO00:46+1:3001:11 01:06+1:4725 20m142741.45471mERDurgapur, West Bengal
40%==%RPHRampurhat (3)X  03:17+1:5903:22+1:595m242859.64641mERDIST - Birbhum, West Bengal
41%==%MLDTMalda Town (5)  06:05+1:5206:20+1:5315m--42983.46830mERDist - Malda, West Bengal
42%==%KNEKishanGanj (3)  08:31+2:2208:33+2:222m--43131.65752mNFRKishanganj, Bihar
43%==|NJPNew Jalpaiguri Junction (8)  10:15 10:05+2:1110:30 10:20+2:1915m143218.955114mNFRCity-Siliguri . Dist-Jalpaiguri, West Bengal
44|--|APDJAlipur Duar Junction (3)  13:20 13:25+3:1013:30+3:0910 5m--43387.47553mNFRDist - Alipurduar, West Bengal
45|==|KOJKokrajhar (3)  14:35+3:0814:37+3:082m--43468.62946mNFR03661-270618, Assam
46|-=|NBQNew Bongaigaon Junction (4)  15:40 15:35+2:5115:45 15:40+2:565m--43496.47958mNFR783381., Assam
47|--|GLPTGoalpara Town (2)  16:25 16:19+3:0516:27 16:21+3:052m--43547.94649mNFRGoalpara Town Rail Station, Assam
48|--|GHYGuwahati (7)X  19:10+2:4419:25+2:4515m--43678.55360mNFRGuwahati, Assam
49|--|JIDJagi Road (2)  20:30+3:2720:32+3:302m--43735.55962mNFRJagiroad, Assam
50!=-|LMGLumding Junction (5)  22:35 22:38+4:0822:37 22:43+4:142 5m--43859.262142mNFRLumding, Assam
51|--|DPUDiphu (2)  23:14+3:5123:16+3:512m--43891.438180mNFRDiphu, Assam
52|--|DMVDimapur (3)  00:15+3:5500:20+4:015m--53928.750153mNFRDimapur, Nagaland
53|--|FKGFurkating Junction (2)  01:40 01:45+4:1601:42 01:47+4:252m--53998.869 NFRK B Rd, Assam
54|--|MXNMariani Junction (4)X  02:15 02:20+3:3702:25 02:30+3:3810m154036.957117mNFRDist. Jorhat Pin-785634, Assam
55|--|NTSKNew Tinsukia Junction (3)X  05:15+4:3305:25+4:3910m--54193.523124mNFRDist: Tinsukia, Assam
56|--|DBRGDibrugarh (4)•  07:15+2:48---54235.5-108mNFRDibrugarh 786003, Assam
Scroll to Top
Scroll to Bottom